createdAt,value
2018-06-15T00:01:21.423Z,27.70
2018-06-15T00:03:50.315Z,27.60
2018-06-15T00:06:19.165Z,27.87
2018-06-15T00:08:48.030Z,30.97
2018-06-15T00:11:16.940Z,29.27
2018-06-15T00:13:45.841Z,29.63
2018-06-15T00:16:14.668Z,30.40
2018-06-15T00:18:43.600Z,31.00
2018-06-15T00:21:12.540Z,31.17
2018-06-15T00:23:41.796Z,32.17
2018-06-15T00:26:10.693Z,31.73
2018-06-15T00:28:39.566Z,31.97
2018-06-15T00:31:08.436Z,31.13
2018-06-15T00:33:37.363Z,30.20
2018-06-15T00:36:06.228Z,31.10
2018-06-15T00:38:35.335Z,31.43
2018-06-15T00:41:04.272Z,29.97
2018-06-15T00:43:33.156Z,29.60
2018-06-15T00:46:02.290Z,30.80
2018-06-15T00:48:31.156Z,31.20
2018-06-15T00:50:59.934Z,32.00
2018-06-15T00:53:29.553Z,33.80
2018-06-15T00:55:58.472Z,35.53
2018-06-15T00:58:27.355Z,32.57
2018-06-15T01:00:56.271Z,33.73
2018-06-15T01:03:25.150Z,34.33
2018-06-15T01:05:54.084Z,32.20
2018-06-15T01:08:23.193Z,35.33
2018-06-15T01:10:52.080Z,33.50
2018-06-15T01:13:20.984Z,34.00
2018-06-15T01:15:49.901Z,33.20
2018-06-15T01:18:18.796Z,34.80
2018-06-15T01:20:47.707Z,34.17
2018-06-15T01:23:16.614Z,34.87
2018-06-15T01:25:45.508Z,33.57
2018-06-15T01:28:14.377Z,33.30
2018-06-15T01:30:43.268Z,34.07
2018-06-15T01:33:12.158Z,36.17
2018-06-15T01:35:41.060Z,35.83
2018-06-15T01:38:09.931Z,35.10
2018-06-15T01:40:38.897Z,35.00
2018-06-15T01:43:07.787Z,35.40
2018-06-15T01:45:36.720Z,34.30
2018-06-15T01:48:05.715Z,33.73
2018-06-15T01:50:34.636Z,35.37
2018-06-15T01:53:03.544Z,34.90
2018-06-15T01:55:32.436Z,36.20
2018-06-15T01:58:01.336Z,36.07
2018-06-15T02:00:30.238Z,34.23
2018-06-15T02:02:59.148Z,35.67
2018-06-15T02:05:28.029Z,37.03
2018-06-15T02:07:56.922Z,34.80
2018-06-15T02:10:25.787Z,36.47
2018-06-15T02:12:54.965Z,35.07
2018-06-15T02:15:23.875Z,35.43
2018-06-15T02:17:52.857Z,35.30
2018-06-15T02:20:21.795Z,36.30
2018-06-15T02:22:50.722Z,35.93
2018-06-15T02:25:19.725Z,38.27
2018-06-15T02:27:48.620Z,41.80
2018-06-15T02:30:17.696Z,37.87
2018-06-15T02:32:46.574Z,38.73
2018-06-15T02:35:15.468Z,36.47
2018-06-15T02:37:44.402Z,39.67
2018-06-15T02:40:13.321Z,37.47
2018-06-15T02:42:45.271Z,35.47
2018-06-15T02:45:14.207Z,39.20
2018-06-15T02:47:43.120Z,36.07
2018-06-15T02:50:12.055Z,36.70
2018-06-15T02:52:40.960Z,39.57
2018-06-15T02:55:09.872Z,38.47
2018-06-15T02:57:38.804Z,35.77
2018-06-15T03:00:07.740Z,38.03
2018-06-15T03:02:36.677Z,34.43
2018-06-15T03:05:05.689Z,37.00
2018-06-15T03:07:34.625Z,33.87
2018-06-15T03:10:03.581Z,34.00
2018-06-15T03:12:32.556Z,35.10
2018-06-15T03:15:01.453Z,33.70
2018-06-15T03:17:30.406Z,33.63
2018-06-15T03:19:59.325Z,34.40
2018-06-15T03:22:28.278Z,36.17
2018-06-15T03:24:57.191Z,35.97
2018-06-15T03:27:26.108Z,34.20
2018-06-15T03:29:55.023Z,33.33
2018-06-15T03:32:23.944Z,33.60
2018-06-15T03:34:52.848Z,36.33
2018-06-15T03:37:21.777Z,33.90
2018-06-15T03:39:50.729Z,35.87
2018-06-15T03:42:19.642Z,39.47
2018-06-15T03:44:48.575Z,37.93
2018-06-15T03:47:17.500Z,39.30
2018-06-15T03:49:46.424Z,40.13
2018-06-15T03:52:15.360Z,39.17
2018-06-15T03:54:44.301Z,38.27
2018-06-15T03:57:13.227Z,32.97
2018-06-15T03:59:42.224Z,36.10
2018-06-15T04:02:11.136Z,38.03
2018-06-15T04:04:40.053Z,39.17
2018-06-15T04:07:08.979Z,39.00
2018-06-15T04:09:38.005Z,39.30
2018-06-15T04:12:06.945Z,40.10
2018-06-15T04:14:35.881Z,40.27
2018-06-15T04:17:04.848Z,40.80
2018-06-15T04:19:33.792Z,40.60
2018-06-15T04:22:02.876Z,38.93
2018-06-15T04:24:31.833Z,39.00
2018-06-15T04:27:00.767Z,39.93
2018-06-15T04:29:29.693Z,41.20
2018-06-15T04:31:58.601Z,43.40
2018-06-15T04:34:27.737Z,40.87
2018-06-15T04:36:56.629Z,42.80
2018-06-15T04:39:25.536Z,40.07
2018-06-15T04:41:54.492Z,38.70
2018-06-15T04:44:23.701Z,38.57
2018-06-15T04:46:52.613Z,37.97
2018-06-15T04:49:21.536Z,38.83
2018-06-15T04:51:50.444Z,38.57
2018-06-15T04:54:19.385Z,40.30
2018-06-15T04:56:48.309Z,38.90
2018-06-15T04:59:17.466Z,40.90
2018-06-15T05:01:46.405Z,39.93
2018-06-15T05:04:15.398Z,41.50
2018-06-15T05:06:44.469Z,39.90
2018-06-15T05:09:13.714Z,39.80
2018-06-15T05:11:42.640Z,40.10
2018-06-15T05:14:11.681Z,40.53
2018-06-15T05:16:40.584Z,42.60
2018-06-15T05:19:09.524Z,41.87
2018-06-15T05:21:38.455Z,42.33
2018-06-15T05:24:07.396Z,41.07
2018-06-15T05:26:36.305Z,42.40
2018-06-15T05:29:05.294Z,45.50
2018-06-15T05:31:34.224Z,44.13
2018-06-15T05:34:03.188Z,42.47
2018-06-15T05:36:32.131Z,43.73
2018-06-15T05:39:01.013Z,45.30
2018-06-15T05:41:29.732Z,46.73
2018-06-15T05:43:58.516Z,45.67
2018-06-15T05:46:27.483Z,44.23
2018-06-15T05:48:56.380Z,41.90
2018-06-15T05:51:25.329Z,43.30
2018-06-15T05:53:54.260Z,41.00
2018-06-15T05:56:23.051Z,41.73
2018-06-15T05:58:52.088Z,42.20
2018-06-15T06:01:21.055Z,43.27
2018-06-15T06:03:50.071Z,42.40
2018-06-15T06:06:18.966Z,41.17
2018-06-15T06:08:47.944Z,40.00
2018-06-15T06:11:16.884Z,40.73
2018-06-15T06:13:45.828Z,42.80
2018-06-15T06:16:14.738Z,37.30
2018-06-15T06:18:43.689Z,36.60
2018-06-15T06:21:12.653Z,36.77
2018-06-15T06:23:41.644Z,37.27
2018-06-15T06:26:10.844Z,36.00
2018-06-15T06:28:39.779Z,39.30
2018-06-15T06:31:08.833Z,36.20
2018-06-15T06:33:37.813Z,38.10
2018-06-15T06:36:06.783Z,37.17
2018-06-15T06:38:35.670Z,36.90
2018-06-15T06:41:04.632Z,35.13
2018-06-15T06:43:33.608Z,34.47
2018-06-15T06:46:02.544Z,34.57
2018-06-15T06:48:31.470Z,33.07
2018-06-15T06:51:00.404Z,31.70
2018-06-15T06:53:29.437Z,33.17
2018-06-15T06:55:58.356Z,32.90
2018-06-15T06:58:27.299Z,31.33
2018-06-15T07:00:56.245Z,31.60
2018-06-15T07:03:27.166Z,31.43
2018-06-15T07:05:56.096Z,33.20
2018-06-15T07:08:24.803Z,31.73
2018-06-15T07:10:53.419Z,31.60
2018-06-15T07:13:22.237Z,31.80
2018-06-15T07:15:51.163Z,34.27
2018-06-15T07:18:20.087Z,33.17
2018-06-15T07:20:49.054Z,30.00
2018-06-15T07:23:17.992Z,33.00
2018-06-15T07:25:46.938Z,35.43
2018-06-15T07:28:15.871Z,30.23
2018-06-15T07:30:44.806Z,30.27
2018-06-15T07:33:13.762Z,31.60
2018-06-15T07:35:42.910Z,33.73
2018-06-15T07:38:11.862Z,34.53
2018-06-15T07:40:40.789Z,32.83
2018-06-15T07:43:09.747Z,31.60
2018-06-15T07:45:38.727Z,30.53
2018-06-15T07:48:07.693Z,29.70
2018-06-15T07:50:36.754Z,29.53
2018-06-15T07:53:05.646Z,29.80
2018-06-15T07:55:34.570Z,27.83
2018-06-15T07:58:03.690Z,27.50
2018-06-15T08:00:32.634Z,27.10
2018-06-15T08:03:01.549Z,25.90
2018-06-15T08:05:30.490Z,25.17
2018-06-15T08:07:59.400Z,25.73
2018-06-15T08:10:28.344Z,23.17
2018-06-15T08:12:57.274Z,19.80
2018-06-15T08:15:26.193Z,18.77
2018-06-15T08:17:55.141Z,20.30
2018-06-15T08:20:24.119Z,18.63
2018-06-15T08:22:53.296Z,19.00
2018-06-15T08:25:22.225Z,17.20
2018-06-15T08:27:51.153Z,18.70
2018-06-15T08:30:20.177Z,19.17
2018-06-15T08:32:49.131Z,19.10
2018-06-15T08:35:18.084Z,19.70
2018-06-15T08:37:47.032Z,21.20
2018-06-15T08:40:16.090Z,21.00
2018-06-15T08:42:45.045Z,21.13
2018-06-15T08:45:14.018Z,18.73
2018-06-15T08:47:42.959Z,16.80
2018-06-15T08:50:11.856Z,17.00
2018-06-15T08:52:40.791Z,16.60
2018-06-15T08:55:09.692Z,16.37
2018-06-15T08:57:39.627Z,14.77
2018-06-15T09:00:08.661Z,13.50
2018-06-15T09:02:37.548Z,15.70
2018-06-15T09:05:06.451Z,14.80
2018-06-15T09:07:35.405Z,15.57
2018-06-15T09:10:04.329Z,16.57
2018-06-15T09:12:33.270Z,16.53
2018-06-15T09:15:02.232Z,15.33
2018-06-15T09:17:31.137Z,14.00
2018-06-15T09:20:01.061Z,13.50
2018-06-15T09:22:30.047Z,15.47
2018-06-15T09:24:58.969Z,13.23
2018-06-15T09:27:27.894Z,14.40
2018-06-15T09:29:57.072Z,13.73
2018-06-15T09:32:26.293Z,12.43
2018-06-15T09:34:55.204Z,10.60
2018-06-15T09:37:24.149Z,14.33
2018-06-15T09:39:53.359Z,14.13
2018-06-15T09:42:22.539Z,12.03
2018-06-15T09:44:51.766Z,14.93
2018-06-15T09:47:20.939Z,9.83
2018-06-15T09:49:50.168Z,9.10
2018-06-15T09:52:19.331Z,12.40
2018-06-15T09:54:48.568Z,13.47
2018-06-15T09:57:17.675Z,13.17
2018-06-15T09:59:46.640Z,12.63
2018-06-15T10:02:15.763Z,13.40
2018-06-15T10:04:44.817Z,13.17
2018-06-15T10:07:13.990Z,12.47
2018-06-15T10:09:43.027Z,11.60
2018-06-15T10:12:15.351Z,11.43
2018-06-15T10:14:44.260Z,13.37
2018-06-15T10:17:13.205Z,11.50
2018-06-15T10:19:42.221Z,12.80
2018-06-15T10:22:11.229Z,12.80
2018-06-15T10:24:40.179Z,10.90
2018-06-15T10:27:09.703Z,11.30
2018-06-15T10:29:38.914Z,10.50
2018-06-15T10:32:07.884Z,8.73
2018-06-15T10:37:12.044Z,9.63
2018-06-15T11:03:28.914Z,7.97
2018-06-15T11:05:57.859Z,6.67
2018-06-15T11:08:26.823Z,5.57
2018-06-15T11:10:55.772Z,6.20
2018-06-15T11:13:24.689Z,4.90
2018-06-15T11:15:53.580Z,5.30
2018-06-15T11:18:22.482Z,5.40
2018-06-15T11:20:51.630Z,5.70
2018-06-15T11:23:20.854Z,5.07
2018-06-15T11:25:49.763Z,6.47
2018-06-15T11:28:19.306Z,6.53
2018-06-15T11:30:48.404Z,8.13
2018-06-15T11:33:17.320Z,7.63
2018-06-15T11:35:46.285Z,7.10
2018-06-15T11:38:15.275Z,6.80
2018-06-15T11:40:44.217Z,7.20
2018-06-15T11:43:13.174Z,6.20
2018-06-15T11:45:42.079Z,5.70
2018-06-15T11:48:10.988Z,6.10
2018-06-15T11:50:39.885Z,6.43
2018-06-15T11:53:08.803Z,5.83
2018-06-15T11:55:37.725Z,5.60
2018-06-15T11:58:06.690Z,6.10
2018-06-15T12:00:35.624Z,4.60
2018-06-15T12:03:04.592Z,4.63
2018-06-15T12:05:33.758Z,4.40
2018-06-15T12:08:02.700Z,5.20
2018-06-15T12:10:31.628Z,4.60
2018-06-15T12:13:00.545Z,5.80
2018-06-15T12:15:29.469Z,5.30
2018-06-15T12:17:58.373Z,5.27
2018-06-15T12:20:27.272Z,4.80
2018-06-15T12:22:56.329Z,4.33
2018-06-15T12:25:25.240Z,4.40
2018-06-15T12:27:54.175Z,4.50
2018-06-15T12:30:23.141Z,4.43
2018-06-15T12:32:52.066Z,5.10
2018-06-15T12:35:21.104Z,3.97
2018-06-15T12:37:50.033Z,4.70
2018-06-15T12:40:18.924Z,4.70
2018-06-15T12:42:47.876Z,4.70
2018-06-15T12:45:16.803Z,4.07
2018-06-15T12:47:45.810Z,4.80
2018-06-15T12:50:14.724Z,5.07
2018-06-15T12:52:43.634Z,5.03
2018-06-15T12:55:12.569Z,4.40
2018-06-15T12:57:41.533Z,4.57
2018-06-15T13:00:10.450Z,4.50
2018-06-15T13:02:39.341Z,5.00
2018-06-15T13:05:08.294Z,4.60
2018-06-15T13:07:37.210Z,4.97
2018-06-15T13:10:06.138Z,4.60
2018-06-15T13:12:35.054Z,5.23
2018-06-15T13:15:04.196Z,4.60
2018-06-15T13:17:33.084Z,5.43
2018-06-15T13:20:02.034Z,4.90
2018-06-15T13:22:30.969Z,5.27
2018-06-15T13:24:59.876Z,5.37
2018-06-15T13:27:28.805Z,4.97
2018-06-15T13:29:57.728Z,4.80
2018-06-15T13:32:26.674Z,5.03
2018-06-15T13:34:55.745Z,4.53
2018-06-15T13:37:24.658Z,4.03
2018-06-15T13:39:53.568Z,3.80
2018-06-15T13:42:22.517Z,4.40
2018-06-15T13:44:51.411Z,4.83
2018-06-15T13:47:20.346Z,4.40
2018-06-15T13:49:49.423Z,4.37
2018-06-15T13:52:18.326Z,3.53
2018-06-15T13:54:47.265Z,3.90
2018-06-15T13:57:16.216Z,4.70
2018-06-15T13:59:45.214Z,3.97
2018-06-15T14:02:14.122Z,5.33
2018-06-15T14:04:43.124Z,4.57
2018-06-15T14:07:12.037Z,5.03
2018-06-15T14:09:41.289Z,5.10
2018-06-15T14:12:10.233Z,4.07
2018-06-15T14:14:39.151Z,3.70
2018-06-15T14:17:08.112Z,5.20
2018-06-15T14:19:36.789Z,3.57
2018-06-15T14:22:05.621Z,3.20
2018-06-15T14:24:34.566Z,3.50
2018-06-15T14:27:03.575Z,3.70
2018-06-15T14:29:32.546Z,3.80
2018-06-15T14:32:01.474Z,3.33
2018-06-15T14:34:30.582Z,3.77
2018-06-15T14:36:59.503Z,3.73
2018-06-15T14:39:29.333Z,3.20
2018-06-15T14:41:58.322Z,3.27
2018-06-15T14:44:27.496Z,3.30
2018-06-15T14:46:56.430Z,3.10
2018-06-15T14:49:25.381Z,3.50
2018-06-15T14:51:54.320Z,3.23
2018-06-15T14:54:23.239Z,3.40
2018-06-15T14:56:52.177Z,3.43
2018-06-15T14:59:21.087Z,3.43
2018-06-15T15:04:25.162Z,3.03
2018-06-15T15:06:54.076Z,3.30
2018-06-15T15:09:23.077Z,3.30
2018-06-15T15:11:51.976Z,2.93
2018-06-15T15:14:20.878Z,2.60
2018-06-15T15:16:50.760Z,3.30
2018-06-15T15:19:19.692Z,3.10
2018-06-15T15:21:48.777Z,3.70
2018-06-15T15:24:17.695Z,3.13
2018-06-15T15:26:46.600Z,3.10
2018-06-15T15:29:15.398Z,3.60
2018-06-15T15:31:45.441Z,3.20
2018-06-15T15:34:14.532Z,2.90
2018-06-15T15:36:43.568Z,3.07
2018-06-15T15:39:12.537Z,3.20
2018-06-15T15:41:41.453Z,3.23
2018-06-15T15:44:10.366Z,3.50
2018-06-15T15:46:39.279Z,3.60
2018-06-15T15:49:08.246Z,3.20
2018-06-15T15:51:37.174Z,3.70
2018-06-15T15:54:06.098Z,3.57
2018-06-15T15:56:35.065Z,3.57
2018-06-15T15:59:04.053Z,3.10
2018-06-15T16:01:33.291Z,3.60
2018-06-15T16:04:02.201Z,3.53
2018-06-15T16:06:31.136Z,3.43
2018-06-15T16:09:00.047Z,3.47
2018-06-15T16:11:29.173Z,2.90
2018-06-15T16:13:58.284Z,3.60
2018-06-15T16:16:27.197Z,3.10
2018-06-15T16:18:56.129Z,3.60
2018-06-15T16:21:25.041Z,3.47
2018-06-15T16:23:53.938Z,3.47
2018-06-15T16:26:22.874Z,3.80
2018-06-15T16:28:51.820Z,3.50
2018-06-15T16:31:20.730Z,3.73
2018-06-15T16:33:49.898Z,3.40
2018-06-15T16:36:18.862Z,3.60
2018-06-15T16:38:48.000Z,3.63
2018-06-15T16:41:16.932Z,3.00
2018-06-15T16:43:45.849Z,3.20
2018-06-15T16:46:14.756Z,2.87
2018-06-15T16:48:43.865Z,3.03
2018-06-15T16:51:12.575Z,3.30
2018-06-15T16:53:41.397Z,3.43
2018-06-15T16:56:10.331Z,3.03
2018-06-15T16:58:39.240Z,3.13
2018-06-15T17:01:08.373Z,3.83
2018-06-15T17:03:37.280Z,3.50
2018-06-15T17:06:06.212Z,3.70
2018-06-15T17:08:35.189Z,3.10
2018-06-15T17:11:04.099Z,3.80
2018-06-15T17:13:32.977Z,3.50
2018-06-15T17:16:02.238Z,3.30
2018-06-15T17:18:31.488Z,3.60
2018-06-15T17:21:00.307Z,3.57
2018-06-15T17:23:29.266Z,3.13
2018-06-15T17:25:58.214Z,3.73
2018-06-15T17:28:27.133Z,2.97
2018-06-15T17:30:56.046Z,3.70
2018-06-15T17:33:24.986Z,3.70
2018-06-15T17:35:54.178Z,3.30
2018-06-15T17:38:23.198Z,2.87
2018-06-15T17:40:52.159Z,3.40
2018-06-15T17:43:21.176Z,3.03
2018-06-15T17:45:51.168Z,3.13
2018-06-15T17:48:20.101Z,3.40
2018-06-15T17:50:49.005Z,3.57
2018-06-15T17:53:17.990Z,3.37
2018-06-15T17:55:46.977Z,3.00
2018-06-15T17:58:15.893Z,3.83
2018-06-15T18:00:44.857Z,3.83
2018-06-15T18:03:13.760Z,3.27
2018-06-15T18:05:42.672Z,2.97
2018-06-15T18:10:46.928Z,3.10
2018-06-15T18:13:15.859Z,3.23
2018-06-15T18:15:44.826Z,3.50
2018-06-15T18:18:13.926Z,3.67
2018-06-15T18:20:43.069Z,3.83
2018-06-15T18:23:12.275Z,3.90
2018-06-15T18:25:41.223Z,3.37
2018-06-15T18:28:10.133Z,3.20
2018-06-15T18:30:39.041Z,3.50
2018-06-15T18:33:07.979Z,3.13
2018-06-15T18:35:36.890Z,3.83
2018-06-15T18:38:06.004Z,3.53
2018-06-15T18:40:34.921Z,3.50
2018-06-15T18:43:03.848Z,3.17
2018-06-15T18:45:32.953Z,3.57
2018-06-15T18:48:01.899Z,3.17
2018-06-15T18:50:30.774Z,3.60
2018-06-15T18:52:59.683Z,4.10
2018-06-15T18:55:28.580Z,3.57
2018-06-15T18:57:57.518Z,3.70
2018-06-15T19:00:26.543Z,3.87
2018-06-15T19:02:55.476Z,4.10
2018-06-15T19:05:24.492Z,3.90
2018-06-15T19:07:53.399Z,4.83
2018-06-15T19:10:22.297Z,4.17
2018-06-15T19:12:52.262Z,3.80
2018-06-15T19:15:21.213Z,4.17
2018-06-15T19:17:50.222Z,4.50
2018-06-15T19:20:19.124Z,4.20
2018-06-15T19:22:48.795Z,4.20
2018-06-15T19:25:17.724Z,4.03
2018-06-15T19:27:46.712Z,4.20
2018-06-15T19:30:16.173Z,3.63
2018-06-15T19:32:45.083Z,5.10
2018-06-15T19:35:14.010Z,4.10
2018-06-15T19:37:43.293Z,3.93
2018-06-15T19:40:12.249Z,4.90
2018-06-15T19:42:41.279Z,4.37
2018-06-15T19:45:10.253Z,4.10
2018-06-15T19:47:39.152Z,4.60
2018-06-15T19:50:08.129Z,5.50
2018-06-15T19:52:37.049Z,5.00
2018-06-15T19:55:06.040Z,5.30
2018-06-15T19:57:34.953Z,5.33
2018-06-15T20:00:03.933Z,5.47
2018-06-15T20:02:32.867Z,5.77
2018-06-15T20:05:02.491Z,5.60
2018-06-15T20:07:31.412Z,5.60
2018-06-15T20:10:00.321Z,5.37
2018-06-15T20:12:29.260Z,5.70
2018-06-15T20:14:58.177Z,5.43
2018-06-15T20:17:27.072Z,5.67
2018-06-15T20:19:56.012Z,7.10
2018-06-15T20:22:24.928Z,5.50
2018-06-15T20:24:53.926Z,6.40
2018-06-15T20:27:22.836Z,5.77
2018-06-15T20:29:51.757Z,6.37
2018-06-15T20:32:20.709Z,6.20
2018-06-15T20:34:49.708Z,5.60
2018-06-15T20:37:18.681Z,6.07
2018-06-15T20:39:47.626Z,5.97
2018-06-15T20:42:16.552Z,7.57
2018-06-15T20:44:45.612Z,5.80
2018-06-15T20:47:14.526Z,6.70
2018-06-15T20:49:43.452Z,6.70
2018-06-15T20:52:12.384Z,5.73
2018-06-15T20:54:41.339Z,6.17
2018-06-15T20:57:10.256Z,7.17
2018-06-15T20:59:39.187Z,7.47
2018-06-15T21:02:08.170Z,7.00
2018-06-15T21:04:37.097Z,7.00
2018-06-15T21:07:06.055Z,7.43
2018-06-15T21:09:34.955Z,7.60
2018-06-15T21:12:03.873Z,8.27
2018-06-15T21:14:32.941Z,7.57
2018-06-15T21:17:01.843Z,7.40
2018-06-15T21:19:30.747Z,7.73
2018-06-15T21:21:59.849Z,7.43
2018-06-15T21:24:28.801Z,7.83
2018-06-15T21:26:57.683Z,7.13
2018-06-15T21:29:26.617Z,7.40
2018-06-15T21:31:55.793Z,7.77
2018-06-15T21:34:24.988Z,7.63
2018-06-15T21:36:54.207Z,7.70
2018-06-15T21:39:23.340Z,7.20
2018-06-15T21:41:52.275Z,7.67
2018-06-15T21:44:22.539Z,7.80
2018-06-15T21:46:51.601Z,8.13
2018-06-15T21:49:20.560Z,7.00
2018-06-15T21:51:49.675Z,8.13
2018-06-15T21:54:18.952Z,7.90
2018-06-15T21:56:47.881Z,7.60
2018-06-15T21:59:17.029Z,7.67
2018-06-15T22:01:45.989Z,8.20
2018-06-15T22:04:14.933Z,9.30
2018-06-15T22:06:43.884Z,9.20
2018-06-15T22:09:13.134Z,8.23
2018-06-15T22:11:42.158Z,7.80
2018-06-15T22:14:11.226Z,8.67
2018-06-15T22:16:45.534Z,9.10
2018-06-15T22:19:14.486Z,9.80
2018-06-15T22:21:43.897Z,9.37
2018-06-15T22:24:12.842Z,8.83
2018-06-15T22:26:41.541Z,10.10
2018-06-15T22:29:10.482Z,9.93
2018-06-15T22:31:39.693Z,10.27
2018-06-15T22:34:08.630Z,10.33
2018-06-15T22:36:37.585Z,10.47
2018-06-15T22:39:09.825Z,10.70
2018-06-15T22:41:38.737Z,10.40
2018-06-15T22:44:07.984Z,9.67
2018-06-15T22:46:36.912Z,10.30
2018-06-15T22:49:05.846Z,10.50
2018-06-15T22:51:34.876Z,10.80
2018-06-15T22:54:04.073Z,10.57
2018-06-15T22:56:33.281Z,10.23
2018-06-15T22:59:02.372Z,10.87
2018-06-15T23:01:31.750Z,10.77
2018-06-15T23:04:01.257Z,10.90
2018-06-15T23:06:30.284Z,10.77
2018-06-15T23:08:59.217Z,10.97
2018-06-15T23:11:28.214Z,11.47
2018-06-15T23:13:57.166Z,11.13
2018-06-15T23:16:26.077Z,11.77
2018-06-15T23:18:54.973Z,12.00
2018-06-15T23:21:23.883Z,11.13
2018-06-15T23:23:52.797Z,11.70
2018-06-15T23:26:21.725Z,11.03
2018-06-15T23:28:50.640Z,12.67
2018-06-15T23:31:19.600Z,11.43
2018-06-15T23:33:48.523Z,11.43
2018-06-15T23:36:17.513Z,11.70
2018-06-15T23:38:46.446Z,12.53
2018-06-15T23:41:15.372Z,12.40
2018-06-15T23:43:44.415Z,12.30
2018-06-15T23:46:13.641Z,12.10
2018-06-15T23:48:42.588Z,11.27
2018-06-15T23:51:11.552Z,14.60
2018-06-15T23:53:40.504Z,12.73
2018-06-15T23:56:09.168Z,13.87
2018-06-15T23:58:38.061Z,13.13
